sensor_id;sensor_type;location;lat;lon;timestamp;temperature;humidity
13405;DHT22;6773;51.192;7.024;2023-09-19T00:31:34;19.60;99.90
13405;DHT22;6773;51.192;7.024;2023-09-19T00:38:59;20.30;99.90
13405;DHT22;6773;51.192;7.024;2023-09-19T00:41:24;20.70;99.90
13405;DHT22;6773;51.192;7.024;2023-09-19T00:46:17;20.30;99.90
13405;DHT22;6773;51.192;7.024;2023-09-19T00:48:43;20.60;99.90
13405;DHT22;6773;51.192;7.024;2023-09-19T00:51:09;20.20;99.90
13405;DHT22;6773;51.192;7.024;2023-09-19T00:53:35;20.50;99.90
13405;DHT22;6773;51.192;7.024;2023-09-19T00:56:04;20.30;99.90
13405;DHT22;6773;51.192;7.024;2023-09-19T00:58:34;20.60;99.90
13405;DHT22;6773;51.192;7.024;2023-09-19T01:01:01;20.60;99.90
13405;DHT22;6773;51.192;7.024;2023-09-19T01:03:27;19.90;99.90
13405;DHT22;6773;51.192;7.024;2023-09-19T01:08:19;20.00;99.90
13405;DHT22;6773;51.192;7.024;2023-09-19T01:11:13;20.40;99.90
13405;DHT22;6773;51.192;7.024;2023-09-19T01:13:48;19.80;99.90
13405;DHT22;6773;51.192;7.024;2023-09-19T01:22:26;20.10;99.90
13405;DHT22;6773;51.192;7.024;2023-09-19T01:28:32;20.80;99.90
13405;DHT22;6773;51.192;7.024;2023-09-19T01:31:02;20.40;99.90
13405;DHT22;6773;51.192;7.024;2023-09-19T01:33:53;19.90;99.90
13405;DHT22;6773;51.192;7.024;2023-09-19T01:41:11;18.30;99.90
13405;DHT22;6773;51.192;7.024;2023-09-19T01:43:43;18.00;99.90
13405;DHT22;6773;51.192;7.024;2023-09-19T01:46:16;18.70;99.90
13405;DHT22;6773;51.192;7.024;2023-09-19T01:49:09;18.80;99.90
13405;DHT22;6773;51.192;7.024;2023-09-19T01:51:50;18.60;99.90
13405;DHT22;6773;51.192;7.024;2023-09-19T01:54:41;19.00;99.90
13405;DHT22;6773;51.192;7.024;2023-09-19T01:57:14;18.70;99.90
13405;DHT22;6773;51.192;7.024;2023-09-19T02:00:26;19.20;99.90
13405;DHT22;6773;51.192;7.024;2023-09-19T02:02:38;18.80;99.90
13405;DHT22;6773;51.192;7.024;2023-09-19T02:07:31;18.10;99.90
13405;DHT22;6773;51.192;7.024;2023-09-19T02:12:26;18.70;99.90
13405;DHT22;6773;51.192;7.024;2023-09-19T02:17:17;18.90;99.90
13405;DHT22;6773;51.192;7.024;2023-09-19T02:24:38;17.70;99.90
13405;DHT22;6773;51.192;7.024;2023-09-19T02:27:04;18.50;99.90
13405;DHT22;6773;51.192;7.024;2023-09-19T02:29:30;18.60;99.90
13405;DHT22;6773;51.192;7.024;2023-09-19T02:31:56;18.30;99.90
13405;DHT22;6773;51.192;7.024;2023-09-19T02:36:48;17.90;99.90
13405;DHT22;6773;51.192;7.024;2023-09-19T02:41:40;17.60;99.90
13405;DHT22;6773;51.192;7.024;2023-09-19T02:44:07;17.90;99.90
13405;DHT22;6773;51.192;7.024;2023-09-19T02:46:34;18.00;99.90
13405;DHT22;6773;51.192;7.024;2023-09-19T02:49:01;17.60;99.90
13405;DHT22;6773;51.192;7.024;2023-09-19T02:51:28;17.20;99.90
13405;DHT22;6773;51.192;7.024;2023-09-19T02:53:54;17.60;99.90
13405;DHT22;6773;51.192;7.024;2023-09-19T03:06:06;16.30;99.90
13405;DHT22;6773;51.192;7.024;2023-09-19T03:08:34;19.30;99.90
13405;DHT22;6773;51.192;7.024;2023-09-19T03:11:03;19.30;99.90
13405;DHT22;6773;51.192;7.024;2023-09-19T03:13:31;18.80;99.90
13405;DHT22;6773;51.192;7.024;2023-09-19T03:15:57;18.40;99.90
13405;DHT22;6773;51.192;7.024;2023-09-19T03:18:24;17.70;99.90
13405;DHT22;6773;51.192;7.024;2023-09-19T03:20:54;18.40;99.90
13405;DHT22;6773;51.192;7.024;2023-09-19T03:23:20;19.00;99.90
13405;DHT22;6773;51.192;7.024;2023-09-19T03:28:13;19.80;99.90
13405;DHT22;6773;51.192;7.024;2023-09-19T03:47:43;20.60;99.90
13405;DHT22;6773;51.192;7.024;2023-09-19T03:52:41;20.30;99.90
13405;DHT22;6773;51.192;7.024;2023-09-19T04:00:02;20.00;99.90
13405;DHT22;6773;51.192;7.024;2023-09-19T04:04:58;19.70;99.90
13405;DHT22;6773;51.192;7.024;2023-09-19T04:07:24;20.00;99.90
13405;DHT22;6773;51.192;7.024;2023-09-19T04:09:51;20.00;99.90
13405;DHT22;6773;51.192;7.024;2023-09-19T04:19:37;19.90;99.90
13405;DHT22;6773;51.192;7.024;2023-09-19T04:24:29;20.80;99.90
13405;DHT22;6773;51.192;7.024;2023-09-19T04:29:24;20.20;99.90
13405;DHT22;6773;51.192;7.024;2023-09-19T04:31:52;20.00;99.90
13405;DHT22;6773;51.192;7.024;2023-09-19T04:34:17;20.10;99.90
13405;DHT22;6773;51.192;7.024;2023-09-19T04:36:43;20.10;99.90
13405;DHT22;6773;51.192;7.024;2023-09-19T04:44:07;19.70;99.90
13405;DHT22;6773;51.192;7.024;2023-09-19T04:46:34;20.20;99.90
13405;DHT22;6773;51.192;7.024;2023-09-19T04:51:26;19.10;99.90
13405;DHT22;6773;51.192;7.024;2023-09-19T04:53:54;19.40;99.90
13405;DHT22;6773;51.192;7.024;2023-09-19T04:56:20;19.70;99.90
13405;DHT22;6773;51.192;7.024;2023-09-19T05:03:40;19.60;99.90
13405;DHT22;6773;51.192;7.024;2023-09-19T05:08:32;20.00;99.90
13405;DHT22;6773;51.192;7.024;2023-09-19T05:10:58;20.20;99.90
13405;DHT22;6773;51.192;7.024;2023-09-19T05:25:38;18.00;99.90
13405;DHT22;6773;51.192;7.024;2023-09-19T05:28:09;16.40;99.90
13405;DHT22;6773;51.192;7.024;2023-09-19T05:30:37;15.30;99.90
13405;DHT22;6773;51.192;7.024;2023-09-19T05:33:04;14.90;99.90
13405;DHT22;6773;51.192;7.024;2023-09-19T05:37:57;14.30;99.90
13405;DHT22;6773;51.192;7.024;2023-09-19T05:40:24;14.10;99.90
13405;DHT22;6773;51.192;7.024;2023-09-19T05:42:50;14.00;99.90
13405;DHT22;6773;51.192;7.024;2023-09-19T05:45:19;14.00;99.90
13405;DHT22;6773;51.192;7.024;2023-09-19T05:47:50;14.10;99.90
13405;DHT22;6773;51.192;7.024;2023-09-19T05:50:17;14.00;99.90
13405;DHT22;6773;51.192;7.024;2023-09-19T05:52:43;13.90;99.90
13405;DHT22;6773;51.192;7.024;2023-09-19T05:55:17;14.00;99.90
13405;DHT22;6773;51.192;7.024;2023-09-19T06:00:09;14.10;99.90
13405;DHT22;6773;51.192;7.024;2023-09-19T06:02:37;14.00;99.90
13405;DHT22;6773;51.192;7.024;2023-09-19T06:05:04;14.10;99.90
13405;DHT22;6773;51.192;7.024;2023-09-19T06:07:34;14.10;99.90
13405;DHT22;6773;51.192;7.024;2023-09-19T06:10:03;14.00;99.90
13405;DHT22;6773;51.192;7.024;2023-09-19T06:12:31;14.00;99.90
13405;DHT22;6773;51.192;7.024;2023-09-19T06:19:52;13.90;99.90
13405;DHT22;6773;51.192;7.024;2023-09-19T06:29:36;14.10;99.90
13405;DHT22;6773;51.192;7.024;2023-09-19T06:34:33;14.10;99.90
13405;DHT22;6773;51.192;7.024;2023-09-19T06:36:59;14.10;99.90
13405;DHT22;6773;51.192;7.024;2023-09-19T06:41:52;14.20;99.90
13405;DHT22;6773;51.192;7.024;2023-09-19T06:44:20;14.20;99.90
13405;DHT22;6773;51.192;7.024;2023-09-19T06:46:50;14.30;99.90
13405;DHT22;6773;51.192;7.024;2023-09-19T06:49:17;14.40;99.90
13405;DHT22;6773;51.192;7.024;2023-09-19T06:51:43;14.30;99.90
13405;DHT22;6773;51.192;7.024;2023-09-19T06:59:01;14.50;99.90
13405;DHT22;6773;51.192;7.024;2023-09-19T07:01:28;14.40;99.90
13405;DHT22;6773;51.192;7.024;2023-09-19T07:06:20;14.50;99.90
13405;DHT22;6773;51.192;7.024;2023-09-19T07:08:45;14.50;99.90
13405;DHT22;6773;51.192;7.024;2023-09-19T07:13:41;14.60;99.90
13405;DHT22;6773;51.192;7.024;2023-09-19T07:16:06;14.60;99.90
13405;DHT22;6773;51.192;7.024;2023-09-19T07:23:31;14.70;99.90
13405;DHT22;6773;51.192;7.024;2023-09-19T07:26:01;14.70;99.90
13405;DHT22;6773;51.192;7.024;2023-09-19T07:30:53;14.80;99.90
13405;DHT22;6773;51.192;7.024;2023-09-19T07:33:19;14.80;99.90
13405;DHT22;6773;51.192;7.024;2023-09-19T07:35:46;14.90;99.90
13405;DHT22;6773;51.192;7.024;2023-09-19T07:38:13;14.90;99.90
13405;DHT22;6773;51.192;7.024;2023-09-19T07:40:39;15.00;99.90
13405;DHT22;6773;51.192;7.024;2023-09-19T07:47:58;15.10;99.90
13405;DHT22;6773;51.192;7.024;2023-09-19T07:50:27;15.10;99.90
13405;DHT22;6773;51.192;7.024;2023-09-19T07:52:53;15.10;99.90
13405;DHT22;6773;51.192;7.024;2023-09-19T07:55:19;15.20;99.90
13405;DHT22;6773;51.192;7.024;2023-09-19T07:57:49;15.20;99.90
13405;DHT22;6773;51.192;7.024;2023-09-19T08:00:15;15.20;99.90
13405;DHT22;6773;51.192;7.024;2023-09-19T08:02:41;15.30;99.90
13405;DHT22;6773;51.192;7.024;2023-09-19T08:05:08;15.20;99.90
13405;DHT22;6773;51.192;7.024;2023-09-19T08:07:41;15.20;99.90
13405;DHT22;6773;51.192;7.024;2023-09-19T08:10:08;15.30;99.90
13405;DHT22;6773;51.192;7.024;2023-09-19T08:12:34;15.40;99.90
13405;DHT22;6773;51.192;7.024;2023-09-19T08:15:04;15.30;99.90
13405;DHT22;6773;51.192;7.024;2023-09-19T08:17:34;15.40;99.90
13405;DHT22;6773;51.192;7.024;2023-09-19T08:20:01;15.50;99.90
13405;DHT22;6773;51.192;7.024;2023-09-19T08:22:28;15.60;99.90
13405;DHT22;6773;51.192;7.024;2023-09-19T08:24:54;15.70;99.90
13405;DHT22;6773;51.192;7.024;2023-09-19T08:29:46;15.90;99.90
13405;DHT22;6773;51.192;7.024;2023-09-19T08:34:38;15.90;99.90
13405;DHT22;6773;51.192;7.024;2023-09-19T08:37:03;16.00;99.90
13405;DHT22;6773;51.192;7.024;2023-09-19T08:39:30;15.80;99.90
13405;DHT22;6773;51.192;7.024;2023-09-19T08:41:59;15.90;99.90
13405;DHT22;6773;51.192;7.024;2023-09-19T08:44:25;15.90;99.90
13405;DHT22;6773;51.192;7.024;2023-09-19T08:46:55;16.10;99.90
13405;DHT22;6773;51.192;7.024;2023-09-19T08:52:32;15.80;99.90
13405;DHT22;6773;51.192;7.024;2023-09-19T08:55:02;16.00;99.90
13405;DHT22;6773;51.192;7.024;2023-09-19T08:57:36;16.00;99.90
13405;DHT22;6773;51.192;7.024;2023-09-19T09:00:07;16.20;99.90
13405;DHT22;6773;51.192;7.024;2023-09-19T09:02:40;16.30;99.90
13405;DHT22;6773;51.192;7.024;2023-09-19T09:05:09;16.40;99.90
13405;DHT22;6773;51.192;7.024;2023-09-19T09:07:40;16.50;99.90
13405;DHT22;6773;51.192;7.024;2023-09-19T09:10:06;16.70;99.90
13405;DHT22;6773;51.192;7.024;2023-09-19T09:12:34;16.70;99.90
13405;DHT22;6773;51.192;7.024;2023-09-19T09:15:02;16.60;99.90
13405;DHT22;6773;51.192;7.024;2023-09-19T09:17:29;16.80;99.90
13405;DHT22;6773;51.192;7.024;2023-09-19T09:19:55;16.80;99.90
13405;DHT22;6773;51.192;7.024;2023-09-19T09:22:21;16.80;99.90
13405;DHT22;6773;51.192;7.024;2023-09-19T09:24:54;17.00;99.90
13405;DHT22;6773;51.192;7.024;2023-09-19T09:29:49;17.50;99.90
13405;DHT22;6773;51.192;7.024;2023-09-19T09:32:20;17.30;99.90
13405;DHT22;6773;51.192;7.024;2023-09-19T09:34:50;17.50;99.90
13405;DHT22;6773;51.192;7.024;2023-09-19T09:37:20;17.50;99.90
13405;DHT22;6773;51.192;7.024;2023-09-19T09:39:58;17.30;99.90
13405;DHT22;6773;51.192;7.024;2023-09-19T09:42:36;17.40;99.90
13405;DHT22;6773;51.192;7.024;2023-09-19T09:45:20;17.30;99.90
13405;DHT22;6773;51.192;7.024;2023-09-19T09:47:58;17.40;99.90
13405;DHT22;6773;51.192;7.024;2023-09-19T09:50:31;17.50;99.90
13405;DHT22;6773;51.192;7.024;2023-09-19T09:53:23;17.40;99.90
13405;DHT22;6773;51.192;7.024;2023-09-19T09:56:06;17.30;99.90
13405;DHT22;6773;51.192;7.024;2023-09-19T09:58:40;17.20;99.90
13405;DHT22;6773;51.192;7.024;2023-09-19T10:03:42;17.10;99.90
13405;DHT22;6773;51.192;7.024;2023-09-19T10:06:16;17.20;99.90
13405;DHT22;6773;51.192;7.024;2023-09-19T10:09:08;17.40;99.90
13405;DHT22;6773;51.192;7.024;2023-09-19T10:11:44;17.40;99.90
13405;DHT22;6773;51.192;7.024;2023-09-19T10:14:12;17.40;99.90
13405;DHT22;6773;51.192;7.024;2023-09-19T10:16:45;17.50;99.90
13405;DHT22;6773;51.192;7.024;2023-09-19T10:19:16;17.90;99.90
13405;DHT22;6773;51.192;7.024;2023-09-19T10:21:44;18.00;99.90
13405;DHT22;6773;51.192;7.024;2023-09-19T10:26:37;18.30;99.90
13405;DHT22;6773;51.192;7.024;2023-09-19T10:29:06;18.30;99.90
13405;DHT22;6773;51.192;7.024;2023-09-19T10:31:33;18.30;99.90
13405;DHT22;6773;51.192;7.024;2023-09-19T10:34:03;18.10;99.90
13405;DHT22;6773;51.192;7.024;2023-09-19T10:36:32;18.20;99.90
13405;DHT22;6773;51.192;7.024;2023-09-19T10:39:02;18.30;99.90
13405;DHT22;6773;51.192;7.024;2023-09-19T10:41:32;18.50;99.90
13405;DHT22;6773;51.192;7.024;2023-09-19T10:44:04;18.40;99.90
13405;DHT22;6773;51.192;7.024;2023-09-19T10:46:32;18.80;99.40
13405;DHT22;6773;51.192;7.024;2023-09-19T10:49:02;18.80;99.00
13405;DHT22;6773;51.192;7.024;2023-09-19T10:51:38;19.10;99.90
13405;DHT22;6773;51.192;7.024;2023-09-19T10:54:12;19.30;97.50
13405;DHT22;6773;51.192;7.024;2023-09-19T10:56:44;18.90;94.90
13405;DHT22;6773;51.192;7.024;2023-09-19T10:59:17;18.80;98.60
13405;DHT22;6773;51.192;7.024;2023-09-19T11:02:00;18.90;99.90
13405;DHT22;6773;51.192;7.024;2023-09-19T11:04:40;19.20;99.30
13405;DHT22;6773;51.192;7.024;2023-09-19T11:09:54;19.20;95.30
13405;DHT22;6773;51.192;7.024;2023-09-19T11:15:03;19.00;98.60
13405;DHT22;6773;51.192;7.024;2023-09-19T11:17:33;19.20;99.80
13405;DHT22;6773;51.192;7.024;2023-09-19T11:30:48;18.90;99.90
13405;DHT22;6773;51.192;7.024;2023-09-19T11:33:18;18.90;99.90
13405;DHT22;6773;51.192;7.024;2023-09-19T11:44:32;20.00;94.00
13405;DHT22;6773;51.192;7.024;2023-09-19T11:49:27;20.80;93.20
13405;DHT22;6773;51.192;7.024;2023-09-19T11:51:58;20.50;91.20
13405;DHT22;6773;51.192;7.024;2023-09-19T11:54:27;20.20;91.60
13405;DHT22;6773;51.192;7.024;2023-09-19T11:56:58;20.20;94.30
13405;DHT22;6773;51.192;7.024;2023-09-19T11:59:25;20.60;92.40
13405;DHT22;6773;51.192;7.024;2023-09-19T12:01:58;20.70;93.00
13405;DHT22;6773;51.192;7.024;2023-09-19T12:04:41;20.90;93.80
13405;DHT22;6773;51.192;7.024;2023-09-19T12:07:13;21.20;91.40
13405;DHT22;6773;51.192;7.024;2023-09-19T12:09:43;21.30;87.10
13405;DHT22;6773;51.192;7.024;2023-09-19T12:12:19;21.40;87.10
13405;DHT22;6773;51.192;7.024;2023-09-19T12:14:49;21.20;84.00
13405;DHT22;6773;51.192;7.024;2023-09-19T12:17:19;21.10;83.40
13405;DHT22;6773;51.192;7.024;2023-09-19T12:19:53;20.70;83.50
13405;DHT22;6773;51.192;7.024;2023-09-19T12:24:46;21.00;84.60
13405;DHT22;6773;51.192;7.024;2023-09-19T12:27:13;20.70;81.70
13405;DHT22;6773;51.192;7.024;2023-09-19T12:29:57;20.60;84.00
13405;DHT22;6773;51.192;7.024;2023-09-19T12:32:36;21.10;87.80
13405;DHT22;6773;51.192;7.024;2023-09-19T12:35:06;21.40;81.90
13405;DHT22;6773;51.192;7.024;2023-09-19T12:37:37;21.40;81.30
13405;DHT22;6773;51.192;7.024;2023-09-19T12:40:09;21.50;80.00
13405;DHT22;6773;51.192;7.024;2023-09-19T12:42:48;21.30;80.80
13405;DHT22;6773;51.192;7.024;2023-09-19T12:45:15;21.30;80.20
13405;DHT22;6773;51.192;7.024;2023-09-19T12:48:23;21.10;79.40
13405;DHT22;6773;51.192;7.024;2023-09-19T12:51:07;20.90;79.00
13405;DHT22;6773;51.192;7.024;2023-09-19T12:53:36;21.10;80.70
13405;DHT22;6773;51.192;7.024;2023-09-19T12:56:08;21.20;81.70
13405;DHT22;6773;51.192;7.024;2023-09-19T13:01:15;21.50;79.50
13405;DHT22;6773;51.192;7.024;2023-09-19T13:08:36;21.40;78.90
13405;DHT22;6773;51.192;7.024;2023-09-19T13:13:45;20.90;79.20
13405;DHT22;6773;51.192;7.024;2023-09-19T13:16:14;21.20;79.00
13405;DHT22;6773;51.192;7.024;2023-09-19T13:18:46;20.90;79.20
13405;DHT22;6773;51.192;7.024;2023-09-19T13:21:13;21.10;80.20
13405;DHT22;6773;51.192;7.024;2023-09-19T13:23:51;21.20;79.00
13405;DHT22;6773;51.192;7.024;2023-09-19T13:26:18;21.40;78.30
13405;DHT22;6773;51.192;7.024;2023-09-19T13:28:44;21.50;77.60
13405;DHT22;6773;51.192;7.024;2023-09-19T13:31:10;21.70;78.50
13405;DHT22;6773;51.192;7.024;2023-09-19T13:33:47;21.70;77.10
13405;DHT22;6773;51.192;7.024;2023-09-19T13:36:13;21.40;76.40
13405;DHT22;6773;51.192;7.024;2023-09-19T13:38:42;21.30;78.70
13405;DHT22;6773;51.192;7.024;2023-09-19T13:41:11;21.60;79.50
13405;DHT22;6773;51.192;7.024;2023-09-19T13:43:37;21.20;78.70
13405;DHT22;6773;51.192;7.024;2023-09-19T13:46:04;20.80;80.30
13405;DHT22;6773;51.192;7.024;2023-09-19T13:48:30;20.70;82.30
13405;DHT22;6773;51.192;7.024;2023-09-19T13:50:56;20.40;82.70
13405;DHT22;6773;51.192;7.024;2023-09-19T13:53:22;19.30;82.70
13405;DHT22;6773;51.192;7.024;2023-09-19T13:55:48;19.80;85.10
13405;DHT22;6773;51.192;7.024;2023-09-19T13:58:14;19.90;86.40
13405;DHT22;6773;51.192;7.024;2023-09-19T14:00:40;19.90;87.10
13405;DHT22;6773;51.192;7.024;2023-09-19T14:17:58;19.30;91.60
13405;DHT22;6773;51.192;7.024;2023-09-19T14:22:52;19.20;92.10
13405;DHT22;6773;51.192;7.024;2023-09-19T14:25:18;19.10;92.40
13405;DHT22;6773;51.192;7.024;2023-09-19T14:27:43;19.10;92.50
13405;DHT22;6773;51.192;7.024;2023-09-19T14:30:10;19.00;92.60
13405;DHT22;6773;51.192;7.024;2023-09-19T14:32:35;19.10;93.50
13405;DHT22;6773;51.192;7.024;2023-09-19T14:35:02;19.10;93.70
13405;DHT22;6773;51.192;7.024;2023-09-19T14:37:28;19.20;94.10
13405;DHT22;6773;51.192;7.024;2023-09-19T14:42:20;19.40;93.30
13405;DHT22;6773;51.192;7.024;2023-09-19T14:44:45;19.40;93.90
13405;DHT22;6773;51.192;7.024;2023-09-19T14:47:13;19.30;94.10
13405;DHT22;6773;51.192;7.024;2023-09-19T14:52:08;19.40;94.60
13405;DHT22;6773;51.192;7.024;2023-09-19T14:54:33;19.40;94.10
13405;DHT22;6773;51.192;7.024;2023-09-19T14:57:00;19.40;95.70
13405;DHT22;6773;51.192;7.024;2023-09-19T14:59:34;19.30;95.90
13405;DHT22;6773;51.192;7.024;2023-09-19T15:02:05;19.20;95.80
13405;DHT22;6773;51.192;7.024;2023-09-19T15:09:24;19.00;96.30
13405;DHT22;6773;51.192;7.024;2023-09-19T15:14:18;18.80;95.50
13405;DHT22;6773;51.192;7.024;2023-09-19T15:19:09;18.80;95.90
13405;DHT22;6773;51.192;7.024;2023-09-19T15:21:38;18.80;96.60
13405;DHT22;6773;51.192;7.024;2023-09-19T15:24:03;18.70;96.60
13405;DHT22;6773;51.192;7.024;2023-09-19T15:28:56;18.80;97.50
13405;DHT22;6773;51.192;7.024;2023-09-19T15:31:22;18.80;97.10
13405;DHT22;6773;51.192;7.024;2023-09-19T15:36:14;18.70;96.90
13405;DHT22;6773;51.192;7.024;2023-09-19T15:39:07;18.70;97.70
13405;DHT22;6773;51.192;7.024;2023-09-19T15:41:40;18.60;97.80
13405;DHT22;6773;51.192;7.024;2023-09-19T15:44:14;18.60;98.00
13405;DHT22;6773;51.192;7.024;2023-09-19T15:49:06;18.50;97.70
13405;DHT22;6773;51.192;7.024;2023-09-19T15:51:33;18.60;98.80
13405;DHT22;6773;51.192;7.024;2023-09-19T15:56:28;18.60;99.30
13405;DHT22;6773;51.192;7.024;2023-09-19T15:58:54;18.60;99.80
13405;DHT22;6773;51.192;7.024;2023-09-19T16:01:22;18.60;98.90
13405;DHT22;6773;51.192;7.024;2023-09-19T16:03:50;18.60;99.90
13405;DHT22;6773;51.192;7.024;2023-09-19T16:06:19;18.70;98.20
13405;DHT22;6773;51.192;7.024;2023-09-19T16:08:46;18.70;98.30
13405;DHT22;6773;51.192;7.024;2023-09-19T16:11:13;18.60;97.80
13405;DHT22;6773;51.192;7.024;2023-09-19T16:13:40;18.70;98.60
13405;DHT22;6773;51.192;7.024;2023-09-19T16:16:12;18.60;98.50
13405;DHT22;6773;51.192;7.024;2023-09-19T16:21:17;18.50;98.20
13405;DHT22;6773;51.192;7.024;2023-09-19T16:23:46;18.60;98.30
13405;DHT22;6773;51.192;7.024;2023-09-19T16:26:12;18.60;97.90
13405;DHT22;6773;51.192;7.024;2023-09-19T16:28:41;18.70;97.10
13405;DHT22;6773;51.192;7.024;2023-09-19T16:31:07;18.80;98.10
13405;DHT22;6773;51.192;7.024;2023-09-19T16:33:41;18.80;97.70
13405;DHT22;6773;51.192;7.024;2023-09-19T16:36:08;19.00;98.20
13405;DHT22;6773;51.192;7.024;2023-09-19T16:38:35;18.90;97.40
13405;DHT22;6773;51.192;7.024;2023-09-19T16:41:01;18.90;97.30
13405;DHT22;6773;51.192;7.024;2023-09-19T16:43:27;18.80;97.40
13405;DHT22;6773;51.192;7.024;2023-09-19T16:46:05;18.80;97.30
13405;DHT22;6773;51.192;7.024;2023-09-19T16:48:34;18.80;98.00
13405;DHT22;6773;51.192;7.024;2023-09-19T16:51:03;18.60;98.60
13405;DHT22;6773;51.192;7.024;2023-09-19T16:53:30;18.90;98.90
13405;DHT22;6773;51.192;7.024;2023-09-19T16:56:10;18.60;98.90
13405;DHT22;6773;51.192;7.024;2023-09-19T16:58:37;18.60;98.60
13405;DHT22;6773;51.192;7.024;2023-09-19T17:01:07;18.60;99.60
13405;DHT22;6773;51.192;7.024;2023-09-19T17:03:42;18.50;99.80
13405;DHT22;6773;51.192;7.024;2023-09-19T17:06:09;18.50;99.90
13405;DHT22;6773;51.192;7.024;2023-09-19T17:08:37;18.40;99.90
13405;DHT22;6773;51.192;7.024;2023-09-19T17:11:14;18.40;99.90
13405;DHT22;6773;51.192;7.024;2023-09-19T17:13:43;18.40;99.90
13405;DHT22;6773;51.192;7.024;2023-09-19T17:16:18;18.40;99.90
13405;DHT22;6773;51.192;7.024;2023-09-19T17:18:53;18.30;99.90
13405;DHT22;6773;51.192;7.024;2023-09-19T17:26:12;18.30;99.90
13405;DHT22;6773;51.192;7.024;2023-09-19T17:28:46;18.10;99.90
13405;DHT22;6773;51.192;7.024;2023-09-19T17:31:14;18.20;99.90
13405;DHT22;6773;51.192;7.024;2023-09-19T17:33:40;18.30;99.90
13405;DHT22;6773;51.192;7.024;2023-09-19T17:36:08;18.20;99.90
13405;DHT22;6773;51.192;7.024;2023-09-19T17:38:36;18.20;99.90
13405;DHT22;6773;51.192;7.024;2023-09-19T17:41:03;18.10;99.90
13405;DHT22;6773;51.192;7.024;2023-09-19T17:43:31;18.40;99.90
13405;DHT22;6773;51.192;7.024;2023-09-19T17:46:05;18.20;99.90
13405;DHT22;6773;51.192;7.024;2023-09-19T17:51:01;18.10;99.90
13405;DHT22;6773;51.192;7.024;2023-09-19T17:53:28;18.10;99.90
13405;DHT22;6773;51.192;7.024;2023-09-19T18:05:43;18.10;99.90
13405;DHT22;6773;51.192;7.024;2023-09-19T18:08:09;18.10;99.90
13405;DHT22;6773;51.192;7.024;2023-09-19T18:15:31;18.10;99.90
13405;DHT22;6773;51.192;7.024;2023-09-19T18:20:27;18.10;99.90
13405;DHT22;6773;51.192;7.024;2023-09-19T18:22:53;18.10;99.90
13405;DHT22;6773;51.192;7.024;2023-09-19T18:25:19;18.10;99.90
13405;DHT22;6773;51.192;7.024;2023-09-19T18:30:12;18.00;99.90
13405;DHT22;6773;51.192;7.024;2023-09-19T18:44:52;18.00;99.90
13405;DHT22;6773;51.192;7.024;2023-09-19T18:47:17;18.00;99.90
13405;DHT22;6773;51.192;7.024;2023-09-19T18:49:43;17.90;99.90
13405;DHT22;6773;51.192;7.024;2023-09-19T18:52:09;17.90;99.90
13405;DHT22;6773;51.192;7.024;2023-09-19T18:57:02;17.90;99.90
13405;DHT22;6773;51.192;7.024;2023-09-19T19:01:55;17.90;99.90
13405;DHT22;6773;51.192;7.024;2023-09-19T19:04:23;17.90;99.90
13405;DHT22;6773;51.192;7.024;2023-09-19T19:09:16;17.70;99.90
13405;DHT22;6773;51.192;7.024;2023-09-19T19:11:44;17.80;99.90
13405;DHT22;6773;51.192;7.024;2023-09-19T19:16:37;17.80;99.90
13405;DHT22;6773;51.192;7.024;2023-09-19T19:21:38;17.80;99.90
13405;DHT22;6773;51.192;7.024;2023-09-19T19:24:04;17.80;99.90
13405;DHT22;6773;51.192;7.024;2023-09-19T19:31:22;17.80;99.90
13405;DHT22;6773;51.192;7.024;2023-09-19T19:33:50;17.80;99.90
13405;DHT22;6773;51.192;7.024;2023-09-19T19:41:14;17.70;99.90
13405;DHT22;6773;51.192;7.024;2023-09-19T19:51:06;17.70;99.90
13405;DHT22;6773;51.192;7.024;2023-09-19T19:53:32;17.80;99.90
13405;DHT22;6773;51.192;7.024;2023-09-19T19:56:01;17.70;99.90
13405;DHT22;6773;51.192;7.024;2023-09-19T20:00:57;17.70;99.90
13405;DHT22;6773;51.192;7.024;2023-09-19T20:03:23;17.70;99.90
13405;DHT22;6773;51.192;7.024;2023-09-19T20:10:43;17.70;99.90
13405;DHT22;6773;51.192;7.024;2023-09-19T20:13:12;17.70;99.90
13405;DHT22;6773;51.192;7.024;2023-09-19T20:15:39;17.60;99.90
13405;DHT22;6773;51.192;7.024;2023-09-19T20:18:06;17.60;99.90
13405;DHT22;6773;51.192;7.024;2023-09-19T20:20:37;17.60;99.90
13405;DHT22;6773;51.192;7.024;2023-09-19T20:23:03;17.60;99.90
13405;DHT22;6773;51.192;7.024;2023-09-19T20:32:49;17.50;99.90
13405;DHT22;6773;51.192;7.024;2023-09-19T20:35:15;17.60;99.90
13405;DHT22;6773;51.192;7.024;2023-09-19T20:37:42;17.50;99.90
13405;DHT22;6773;51.192;7.024;2023-09-19T20:45:08;17.50;99.90
13405;DHT22;6773;51.192;7.024;2023-09-19T20:47:39;17.50;99.90
13405;DHT22;6773;51.192;7.024;2023-09-19T20:50:06;17.50;99.90
13405;DHT22;6773;51.192;7.024;2023-09-19T20:52:32;17.50;99.90
13405;DHT22;6773;51.192;7.024;2023-09-19T20:59:50;17.60;99.90
13405;DHT22;6773;51.192;7.024;2023-09-19T21:02:16;17.50;99.90
13405;DHT22;6773;51.192;7.024;2023-09-19T21:04:42;17.50;99.90
13405;DHT22;6773;51.192;7.024;2023-09-19T21:09:33;17.40;99.90
13405;DHT22;6773;51.192;7.024;2023-09-19T21:12:03;17.50;99.90
13405;DHT22;6773;51.192;7.024;2023-09-19T21:14:30;17.50;99.90
13405;DHT22;6773;51.192;7.024;2023-09-19T21:16:57;17.50;99.90
13405;DHT22;6773;51.192;7.024;2023-09-19T21:26:46;17.40;99.90
13405;DHT22;6773;51.192;7.024;2023-09-19T21:29:13;17.40;99.90
13405;DHT22;6773;51.192;7.024;2023-09-19T21:36:32;17.30;99.90
13405;DHT22;6773;51.192;7.024;2023-09-19T21:38:59;17.40;99.90
13405;DHT22;6773;51.192;7.024;2023-09-19T21:41:26;17.30;99.90
13405;DHT22;6773;51.192;7.024;2023-09-19T21:43:53;17.40;99.90
13405;DHT22;6773;51.192;7.024;2023-09-19T21:46:22;17.40;99.90
13405;DHT22;6773;51.192;7.024;2023-09-19T21:51:15;17.40;99.90
13405;DHT22;6773;51.192;7.024;2023-09-19T21:53:41;17.40;99.90
13405;DHT22;6773;51.192;7.024;2023-09-19T21:56:07;17.40;99.90
13405;DHT22;6773;51.192;7.024;2023-09-19T21:58:34;17.30;99.90
13405;DHT22;6773;51.192;7.024;2023-09-19T22:01:02;17.40;99.90
13405;DHT22;6773;51.192;7.024;2023-09-19T22:03:29;17.50;99.90
13405;DHT22;6773;51.192;7.024;2023-09-19T22:06:07;17.40;99.90
13405;DHT22;6773;51.192;7.024;2023-09-19T22:08:33;17.40;99.90
13405;DHT22;6773;51.192;7.024;2023-09-19T22:11:00;17.50;99.90
13405;DHT22;6773;51.192;7.024;2023-09-19T22:13:26;17.50;99.90
13405;DHT22;6773;51.192;7.024;2023-09-19T22:16:01;17.50;99.90
13405;DHT22;6773;51.192;7.024;2023-09-19T22:18:29;17.50;99.90
13405;DHT22;6773;51.192;7.024;2023-09-19T22:20:56;17.50;99.90
13405;DHT22;6773;51.192;7.024;2023-09-19T22:23:25;17.40;99.90
13405;DHT22;6773;51.192;7.024;2023-09-19T22:26:00;17.40;99.90
13405;DHT22;6773;51.192;7.024;2023-09-19T22:28:36;17.60;99.90
13405;DHT22;6773;51.192;7.024;2023-09-19T22:33:34;17.40;99.90
13405;DHT22;6773;51.192;7.024;2023-09-19T22:36:03;17.40;99.90
13405;DHT22;6773;51.192;7.024;2023-09-19T22:38:31;17.40;99.90
13405;DHT22;6773;51.192;7.024;2023-09-19T22:46:03;17.30;99.90
13405;DHT22;6773;51.192;7.024;2023-09-19T22:48:37;17.20;99.90